createdAt,value
2022-11-28T00:00:12.411Z,100476.25
2022-11-28T00:02:46.142Z,100485.97
2022-11-28T00:05:14.643Z,100474.25
2022-11-28T00:07:43.063Z,100476.00
2022-11-28T00:10:15.493Z,100464.06
2022-11-28T00:12:46.232Z,100459.28
2022-11-28T00:15:16.155Z,100457.28
2022-11-28T00:17:44.827Z,100459.53
2022-11-28T00:20:14.863Z,100461.00
2022-11-28T00:22:44.983Z,100461.53
2022-11-28T00:25:14.698Z,100456.25
2022-11-28T00:27:47.225Z,100450.75
2022-11-28T00:30:16.518Z,100463.69
2022-11-28T00:32:48.044Z,100472.91
2022-11-28T00:35:16.732Z,100470.41
2022-11-28T00:37:44.960Z,100467.94
2022-11-28T00:40:13.909Z,100464.97
2022-11-28T00:42:42.073Z,100448.03
2022-11-28T00:45:14.368Z,100448.56
2022-11-28T00:47:44.137Z,100449.59
2022-11-28T00:50:15.125Z,100452.84
2022-11-28T00:52:45.833Z,100456.06
2022-11-28T00:55:14.740Z,100451.13
2022-11-28T00:57:43.131Z,100452.88
2022-11-28T01:00:14.274Z,100454.66
2022-11-28T01:02:42.545Z,100455.41
2022-11-28T01:05:11.324Z,100455.16
2022-11-28T01:07:42.688Z,100459.16
2022-11-28T01:10:13.204Z,100463.16
2022-11-28T01:12:41.699Z,100465.94
2022-11-28T01:15:14.200Z,100460.72
2022-11-28T01:17:42.760Z,100455.28
2022-11-28T01:20:13.228Z,100465.56
2022-11-28T01:22:42.009Z,100469.09
2022-11-28T01:25:14.203Z,100466.13
2022-11-28T01:27:45.098Z,100462.69
2022-11-28T01:30:16.334Z,100463.47
2022-11-28T01:32:48.470Z,100461.50
2022-11-28T01:35:17.588Z,100466.03
2022-11-28T01:37:46.584Z,100456.28
2022-11-28T01:40:15.650Z,100450.59
2022-11-28T01:42:46.212Z,100447.34
2022-11-28T01:45:23.141Z,100444.38
2022-11-28T01:47:58.046Z,100436.88
2022-11-28T01:50:27.881Z,100425.41
2022-11-28T01:53:02.001Z,100407.69
2022-11-28T01:55:35.304Z,100409.66
2022-11-28T01:58:04.719Z,100410.88
2022-11-28T02:00:37.779Z,100411.38
2022-11-28T02:03:14.225Z,100414.78
2022-11-28T02:05:43.993Z,100415.00
2022-11-28T02:08:14.721Z,100407.97
2022-11-28T02:10:56.978Z,100396.25
2022-11-28T02:13:40.130Z,100379.97
2022-11-28T02:16:31.840Z,100385.19
2022-11-28T02:19:17.540Z,100379.41
2022-11-28T02:22:00.763Z,100385.66
2022-11-28T02:25:04.586Z,100388.88
2022-11-28T02:28:07.998Z,100383.38
2022-11-28T02:30:49.657Z,100375.94
2022-11-28T02:33:27.053Z,100382.69
2022-11-28T02:36:05.689Z,100388.91
2022-11-28T02:38:47.526Z,100379.41
2022-11-28T02:41:21.819Z,100370.50
2022-11-28T02:44:01.488Z,100374.50
2022-11-28T02:46:42.140Z,100380.50
2022-11-28T02:49:20.681Z,100384.72
2022-11-28T02:51:54.253Z,100376.56
2022-11-28T02:54:28.573Z,100372.31
2022-11-28T02:56:59.173Z,100379.06
2022-11-28T02:59:34.917Z,100377.34
2022-11-28T03:02:05.791Z,100383.34
2022-11-28T03:04:45.795Z,100365.66
2022-11-28T03:07:30.304Z,100363.44
2022-11-28T03:10:10.745Z,100364.44
2022-11-28T03:12:52.761Z,100356.75
2022-11-28T03:15:31.393Z,100355.25
2022-11-28T03:18:09.993Z,100348.28
2022-11-28T03:20:49.211Z,100363.22
2022-11-28T03:23:22.806Z,100348.53
2022-11-28T03:26:00.037Z,100351.28
2022-11-28T03:28:38.118Z,100341.81
2022-11-28T03:31:13.143Z,100350.53
2022-11-28T03:33:46.068Z,100349.25
2022-11-28T03:36:20.750Z,100337.81
2022-11-28T03:38:54.140Z,100336.34
2022-11-28T03:41:29.832Z,100332.84
2022-11-28T03:44:03.448Z,100341.81
2022-11-28T03:46:37.769Z,100339.06
2022-11-28T03:49:10.358Z,100329.88
2022-11-28T03:51:48.074Z,100323.66
2022-11-28T03:54:23.625Z,100323.91
2022-11-28T03:56:58.605Z,100318.72
2022-11-28T03:59:34.625Z,100319.72
2022-11-28T04:02:09.489Z,100320.25
2022-11-28T04:04:45.374Z,100322.25
2022-11-28T04:07:25.063Z,100325.00
2022-11-28T04:10:01.362Z,100326.97
2022-11-28T04:12:38.590Z,100331.72
2022-11-28T04:15:13.900Z,100333.47
2022-11-28T04:17:52.570Z,100312.31
2022-11-28T04:20:30.740Z,100314.09
2022-11-28T04:23:06.571Z,100317.56
2022-11-28T04:25:39.206Z,100316.56
2022-11-28T04:28:12.392Z,100320.28
2022-11-28T04:30:45.338Z,100325.25
2022-11-28T04:33:15.501Z,100326.00
2022-11-28T04:35:47.803Z,100320.78
2022-11-28T04:38:18.969Z,100325.78
2022-11-28T04:40:53.715Z,100335.25
2022-11-28T04:43:29.042Z,100342.00
2022-11-28T04:46:05.456Z,100338.75
2022-11-28T04:48:34.953Z,100337.56
2022-11-28T04:51:14.537Z,100332.34
2022-11-28T04:53:53.532Z,100328.63
2022-11-28T04:56:26.689Z,100332.34
2022-11-28T04:58:57.519Z,100322.41
2022-11-28T05:01:31.380Z,100327.13
2022-11-28T05:04:02.766Z,100319.66
2022-11-28T05:06:34.135Z,100319.63
2022-11-28T05:09:05.917Z,100316.66
2022-11-28T05:11:37.188Z,100309.63
2022-11-28T05:14:06.518Z,100321.56
2022-11-28T05:16:36.244Z,100326.31
2022-11-28T05:19:05.823Z,100317.88
2022-11-28T05:21:35.862Z,100306.91
2022-11-28T05:24:06.290Z,100293.69
2022-11-28T05:26:35.589Z,100301.16
2022-11-28T05:29:04.139Z,100296.97
2022-11-28T05:31:32.468Z,100294.22
2022-11-28T05:34:01.264Z,100294.72
2022-11-28T05:36:30.036Z,100292.47
2022-11-28T05:38:59.315Z,100297.22
2022-11-28T05:41:31.516Z,100292.47
2022-11-28T05:44:01.311Z,100295.22
2022-11-28T05:46:32.715Z,100294.25
2022-11-28T05:49:02.695Z,100292.03
2022-11-28T05:51:31.322Z,100291.78
2022-11-28T05:54:03.456Z,100292.28
2022-11-28T05:56:42.103Z,100281.84
2022-11-28T05:59:11.588Z,100280.56
2022-11-28T06:01:41.081Z,100285.81
2022-11-28T06:04:13.502Z,100289.03
2022-11-28T06:06:43.108Z,100284.78
2022-11-28T06:09:11.352Z,100288.81
2022-11-28T06:11:41.432Z,100279.84
2022-11-28T06:14:11.974Z,100279.84
2022-11-28T06:16:46.311Z,100286.81
2022-11-28T06:19:20.309Z,100283.56
2022-11-28T06:21:50.943Z,100279.09
2022-11-28T06:24:19.752Z,100280.34
2022-11-28T06:26:50.258Z,100282.06
2022-11-28T06:29:21.696Z,100278.06
2022-11-28T06:31:50.118Z,100285.03
2022-11-28T06:34:19.274Z,100282.28
2022-11-28T06:36:55.117Z,100286.00
2022-11-28T06:39:23.882Z,100291.00
2022-11-28T06:41:53.822Z,100282.47
2022-11-28T06:44:25.720Z,100295.69
2022-11-28T06:46:55.498Z,100307.09
2022-11-28T06:49:26.287Z,100313.03
2022-11-28T06:51:55.435Z,100304.06
2022-11-28T06:54:24.209Z,100301.31
2022-11-28T06:56:53.954Z,100295.09
2022-11-28T06:59:22.654Z,100299.59
2022-11-28T07:01:51.756Z,100306.34
2022-11-28T07:04:19.935Z,100303.38
2022-11-28T07:06:48.339Z,100305.63
2022-11-28T07:09:21.496Z,100309.09
2022-11-28T07:11:50.279Z,100317.13
2022-11-28T07:14:24.301Z,100319.34
2022-11-28T07:16:54.674Z,100316.84
2022-11-28T07:19:26.101Z,100326.31
2022-11-28T07:21:54.653Z,100322.31
2022-11-28T07:24:26.432Z,100323.81
2022-11-28T07:26:54.729Z,100327.81
2022-11-28T07:29:30.721Z,100332.25
2022-11-28T07:32:00.062Z,100322.06
2022-11-28T07:34:29.669Z,100325.25
2022-11-28T07:36:58.360Z,100335.72
2022-11-28T07:39:38.989Z,100330.47
2022-11-28T07:42:09.175Z,100323.22
2022-11-28T07:44:40.155Z,100325.91
2022-11-28T07:47:08.309Z,100322.38
2022-11-28T07:49:38.629Z,100319.13
2022-11-28T07:52:07.012Z,100321.09
2022-11-28T07:54:35.258Z,100317.03
2022-11-28T07:57:11.941Z,100320.47
2022-11-28T07:59:49.018Z,100316.94
2022-11-28T08:02:17.522Z,100313.38
2022-11-28T08:04:49.598Z,100314.81
2022-11-28T08:07:23.161Z,100308.00
2022-11-28T08:09:53.098Z,100313.47
2022-11-28T08:12:21.677Z,100312.13
2022-11-28T08:14:53.561Z,100310.31
2022-11-28T08:17:22.420Z,100313.22
2022-11-28T08:19:51.700Z,100310.41
2022-11-28T08:22:20.208Z,100314.56
2022-11-28T08:24:48.338Z,100314.25
2022-11-28T08:27:16.583Z,100309.88
2022-11-28T08:29:49.125Z,100312.78
2022-11-28T08:32:21.982Z,100313.97
2022-11-28T08:34:52.382Z,100318.47
2022-11-28T08:37:20.732Z,100313.72
2022-11-28T08:39:52.691Z,100305.28
2022-11-28T08:42:23.158Z,100304.09
2022-11-28T08:44:54.855Z,100305.75
2022-11-28T08:47:24.658Z,100308.31
2022-11-28T08:49:58.998Z,100313.66
2022-11-28T08:52:30.132Z,100308.28
2022-11-28T08:55:00.555Z,100305.88
2022-11-28T08:57:30.188Z,100307.47
2022-11-28T08:59:58.995Z,100307.59
2022-11-28T09:02:28.946Z,100300.63
2022-11-28T09:04:57.836Z,100298.03
2022-11-28T09:07:26.755Z,100299.28
2022-11-28T09:09:57.478Z,100299.28
2022-11-28T09:12:26.022Z,100304.16
2022-11-28T09:14:55.099Z,100300.25
2022-11-28T09:17:25.864Z,100303.03
2022-11-28T09:19:55.929Z,100301.44
2022-11-28T09:22:24.599Z,100300.59
2022-11-28T09:24:53.200Z,100298.00
2022-11-28T09:27:23.742Z,100302.88
2022-11-28T09:29:52.249Z,100296.16
2022-11-28T09:32:20.615Z,100293.38
2022-11-28T09:34:51.323Z,100299.19
2022-11-28T09:37:21.042Z,100300.72
2022-11-28T09:40:11.362Z,100288.22
2022-11-28T09:42:42.214Z,100293.81
2022-11-28T09:45:17.731Z,100292.88
2022-11-28T09:47:54.319Z,100289.44
2022-11-28T09:50:26.365Z,100288.16
2022-11-28T09:53:02.088Z,100296.16
2022-11-28T09:55:37.318Z,100283.81
2022-11-28T09:58:13.167Z,100280.41
2022-11-28T10:00:54.088Z,100285.09
2022-11-28T10:03:40.226Z,100281.88
2022-11-28T10:06:19.133Z,100286.56
2022-11-28T10:09:03.985Z,100279.88
2022-11-28T10:11:46.376Z,100281.25
2022-11-28T10:14:45.320Z,100287.09
2022-11-28T10:17:21.814Z,100285.44
2022-11-28T10:19:56.236Z,100277.63
2022-11-28T10:22:47.273Z,100285.66
2022-11-28T10:25:23.896Z,100282.72
2022-11-28T10:27:52.381Z,100281.63
2022-11-28T10:30:24.771Z,100279.19
2022-11-28T10:32:59.686Z,100294.81
2022-11-28T10:35:36.731Z,100288.97
2022-11-28T10:38:13.157Z,100283.19
2022-11-28T10:40:50.965Z,100285.31
2022-11-28T10:43:31.159Z,100278.53
2022-11-28T10:46:23.719Z,100280.13
2022-11-28T10:50:01.943Z,100273.75
2022-11-28T10:52:39.406Z,100277.59
2022-11-28T10:55:27.069Z,100283.44
2022-11-28T10:58:09.097Z,100282.56
2022-11-28T11:00:38.926Z,100283.75
2022-11-28T11:03:11.636Z,100280.81
2022-11-28T11:05:42.550Z,100278.94
2022-11-28T11:08:19.578Z,100276.13
2022-11-28T11:10:51.367Z,100275.66
2022-11-28T11:13:26.752Z,100275.50
2022-11-28T11:16:00.699Z,100260.78
2022-11-28T11:18:32.728Z,100265.22
2022-11-28T11:21:17.017Z,100258.06
2022-11-28T11:23:47.118Z,100251.59
2022-11-28T11:26:21.305Z,100250.13
2022-11-28T11:28:54.819Z,100249.09
2022-11-28T11:31:28.271Z,100260.34
2022-11-28T11:34:04.929Z,100253.41
2022-11-28T11:36:39.059Z,100251.81
2022-11-28T11:39:23.745Z,100245.75
2022-11-28T11:42:10.249Z,100251.25
2022-11-28T11:44:42.266Z,100245.75
2022-11-28T11:47:12.128Z,100246.91
2022-11-28T11:49:44.681Z,100244.34
2022-11-28T11:52:22.711Z,100247.91
2022-11-28T11:54:59.132Z,100244.50
2022-11-28T11:57:34.762Z,100237.25
2022-11-28T12:00:08.309Z,100230.91
2022-11-28T12:02:46.818Z,100227.41
2022-11-28T12:05:19.988Z,100229.47
2022-11-28T12:07:57.563Z,100236.13
2022-11-28T12:10:30.511Z,100227.25
2022-11-28T12:13:01.609Z,100239.53
2022-11-28T12:15:42.444Z,100237.53
2022-11-28T12:18:25.675Z,100234.22
2022-11-28T12:21:16.033Z,100242.53
2022-11-28T12:24:05.916Z,100242.19
2022-11-28T12:26:43.568Z,100245.91
2022-11-28T12:29:44.661Z,100243.38
2022-11-28T12:32:29.781Z,100240.00
2022-11-28T12:35:16.837Z,100240.66
2022-11-28T12:38:12.765Z,100231.13
2022-11-28T12:40:59.199Z,100230.19
2022-11-28T12:43:42.799Z,100225.16
2022-11-28T12:46:21.249Z,100226.34
2022-11-28T12:49:04.386Z,100231.03
2022-11-28T12:51:45.005Z,100210.63
2022-11-28T12:54:35.625Z,100214.94
2022-11-28T12:57:13.256Z,100214.00
2022-11-28T12:59:49.522Z,100221.06
2022-11-28T13:02:29.734Z,100217.34
2022-11-28T13:05:28.660Z,100216.59
2022-11-28T13:08:32.517Z,100215.09
2022-11-28T13:11:14.258Z,100217.47
2022-11-28T13:13:48.607Z,100210.28
2022-11-28T13:16:28.382Z,100213.00
2022-11-28T13:19:04.333Z,100208.44
2022-11-28T13:21:43.111Z,100198.31
2022-11-28T13:24:29.817Z,100205.88
2022-11-28T13:27:10.723Z,100199.97
2022-11-28T13:29:47.723Z,100204.06
2022-11-28T13:32:25.276Z,100202.03
2022-11-28T13:34:55.710Z,100200.41
2022-11-28T13:40:58.279Z,100207.81
2022-11-28T13:43:35.085Z,100204.81
2022-11-28T13:46:08.331Z,100204.97
2022-11-28T13:49:19.892Z,100190.78
2022-11-28T13:52:10.889Z,100200.22
2022-11-28T13:54:47.775Z,100189.16
2022-11-28T13:57:31.986Z,100197.06
2022-11-28T14:00:07.131Z,100196.88
2022-11-28T14:02:47.514Z,100188.41
2022-11-28T14:05:26.947Z,100186.88
2022-11-28T14:07:57.788Z,100187.47
2022-11-28T14:13:36.098Z,100185.13
2022-11-28T14:16:17.707Z,100183.78
2022-11-28T14:19:04.542Z,100181.75
2022-11-28T14:21:46.528Z,100181.75
2022-11-28T14:24:24.462Z,100188.03
2022-11-28T14:27:03.506Z,100191.16
2022-11-28T14:29:39.161Z,100194.66
2022-11-28T14:32:29.628Z,100195.41
2022-11-28T14:34:56.955Z,100191.69
2022-11-28T14:37:52.781Z,100198.88
2022-11-28T14:41:06.848Z,100194.25
2022-11-28T14:43:38.077Z,100199.22
2022-11-28T14:46:32.667Z,100196.84
2022-11-28T14:49:23.552Z,100191.44
2022-11-28T14:52:38.495Z,100204.72
2022-11-28T14:55:18.987Z,100198.78
2022-11-28T14:57:59.639Z,100204.47
2022-11-28T15:00:32.753Z,100205.38
2022-11-28T15:03:17.976Z,100202.75
2022-11-28T15:05:48.803Z,100200.13
2022-11-28T15:08:55.211Z,100210.63
2022-11-28T15:11:48.047Z,100207.41
2022-11-28T15:14:22.987Z,100210.13
2022-11-28T15:16:56.570Z,100208.78
2022-11-28T15:19:29.804Z,100207.66
2022-11-28T15:23:00.465Z,100206.88
2022-11-28T15:25:35.461Z,100218.78
2022-11-28T15:28:17.657Z,100216.34
2022-11-28T15:30:49.101Z,100219.25
2022-11-28T15:33:18.419Z,100223.63
2022-11-28T15:35:58.287Z,100222.69
2022-11-28T15:38:29.709Z,100220.06
2022-11-28T15:41:00.197Z,100231.47
2022-11-28T15:43:30.521Z,100224.78
2022-11-28T15:46:02.889Z,100234.13
2022-11-28T15:48:39.906Z,100234.13
2022-11-28T15:51:26.372Z,100232.66
2022-11-28T15:53:55.310Z,100236.88
2022-11-28T15:56:24.717Z,100240.19
2022-11-28T15:58:54.406Z,100235.41
2022-11-28T16:01:25.602Z,100235.94
2022-11-28T16:03:57.571Z,100232.66
2022-11-28T16:06:32.189Z,100235.94
2022-11-28T16:09:03.856Z,100235.94
2022-11-28T16:11:33.619Z,100239.47
2022-11-28T16:14:09.434Z,100237.97
2022-11-28T16:16:40.159Z,100237.22
2022-11-28T16:19:19.479Z,100241.47
2022-11-28T16:21:58.845Z,100240.00
2022-11-28T16:24:38.161Z,100244.78
2022-11-28T16:27:08.566Z,100251.75
2022-11-28T16:29:38.878Z,100242.53
2022-11-28T16:32:09.265Z,100251.53
2022-11-28T16:34:49.199Z,100245.84
2022-11-28T16:37:23.223Z,100244.88
2022-11-28T16:40:02.388Z,100246.16
2022-11-28T16:42:31.488Z,100248.94
2022-11-28T16:45:08.570Z,100243.19
2022-11-28T16:47:40.208Z,100251.47
2022-11-28T16:50:21.384Z,100250.53
2022-11-28T16:52:54.729Z,100257.34
2022-11-28T16:55:44.336Z,100243.53
2022-11-28T16:58:23.083Z,100245.56
2022-11-28T17:01:03.232Z,100254.03
2022-11-28T17:03:44.404Z,100247.25
2022-11-28T17:06:28.449Z,100254.97
2022-11-28T17:08:59.062Z,100252.97
2022-11-28T17:11:33.169Z,100248.19
2022-11-28T17:14:08.782Z,100260.47
2022-11-28T17:16:40.859Z,100250.94
2022-11-28T17:19:09.442Z,100261.97
2022-11-28T17:21:42.910Z,100257.00
2022-11-28T17:24:18.815Z,100253.50
2022-11-28T17:26:47.445Z,100249.28
2022-11-28T17:29:18.171Z,100250.75
2022-11-28T17:31:48.719Z,100253.28
2022-11-28T17:34:19.193Z,100247.56
2022-11-28T17:36:49.418Z,100258.59
2022-11-28T17:39:22.343Z,100248.66
2022-11-28T17:41:50.898Z,100252.69
2022-11-28T17:44:21.729Z,100258.19
2022-11-28T17:46:52.652Z,100250.47
2022-11-28T17:49:25.538Z,100255.25
2022-11-28T17:51:58.952Z,100257.78
2022-11-28T17:54:28.769Z,100244.53
2022-11-28T17:57:01.851Z,100239.34
2022-11-28T17:59:30.657Z,100244.13
2022-11-28T18:02:00.734Z,100253.47
2022-11-28T18:04:28.874Z,100247.00
2022-11-28T18:07:00.056Z,100253.25
2022-11-28T18:09:32.640Z,100262.78
2022-11-28T18:12:01.015Z,100259.31
2022-11-28T18:14:33.965Z,100256.53
2022-11-28T18:17:04.854Z,100258.56
2022-11-28T18:19:34.177Z,100255.81
2022-11-28T18:22:03.265Z,100257.84
2022-11-28T18:24:34.450Z,100264.59
2022-11-28T18:27:05.529Z,100260.38
2022-11-28T18:29:36.315Z,100264.22
2022-11-28T18:32:07.261Z,100268.97
2022-11-28T18:34:36.846Z,100255.72
2022-11-28T18:37:09.898Z,100257.94
2022-11-28T18:39:45.984Z,100261.63
2022-11-28T18:42:16.828Z,100262.19
2022-11-28T18:44:45.282Z,100270.47
2022-11-28T18:47:15.017Z,100271.72
2022-11-28T18:49:44.470Z,100266.97
2022-11-28T18:52:24.102Z,100264.94
2022-11-28T18:54:53.922Z,100265.69
2022-11-28T18:57:22.521Z,100264.22
2022-11-28T18:59:55.313Z,100269.72
2022-11-28T19:02:25.132Z,100266.97
2022-11-28T19:04:53.748Z,100265.69
2022-11-28T19:07:22.135Z,100260.91
2022-11-28T19:09:51.042Z,100269.72
2022-11-28T19:12:25.032Z,100263.44
2022-11-28T19:15:00.315Z,100267.50
2022-11-28T19:17:30.686Z,100277.78
2022-11-28T19:19:59.364Z,100271.84
2022-11-28T19:22:31.396Z,100270.16
2022-11-28T19:24:59.890Z,100276.94
2022-11-28T19:27:35.685Z,100281.69
2022-11-28T19:30:04.902Z,100280.22
2022-11-28T19:32:33.354Z,100274.00
2022-11-28T19:35:02.597Z,100272.28
2022-11-28T19:37:32.356Z,100276.09
2022-11-28T19:40:02.743Z,100265.41
2022-11-28T19:42:35.892Z,100274.22
2022-11-28T19:45:05.965Z,100276.53
2022-11-28T19:47:34.217Z,100282.81
2022-11-28T19:50:04.159Z,100278.56
2022-11-28T19:52:34.136Z,100287.56
2022-11-28T19:55:08.512Z,100293.81
2022-11-28T19:57:42.147Z,100296.56
2022-11-28T20:00:12.799Z,100296.75
2022-11-28T20:02:47.701Z,100284.50
2022-11-28T20:05:16.359Z,100296.97
2022-11-28T20:07:44.760Z,100286.69
2022-11-28T20:10:15.202Z,100288.94
2022-11-28T20:12:46.693Z,100302.69
2022-11-28T20:15:18.380Z,100302.91
2022-11-28T20:17:47.626Z,100299.63
2022-11-28T20:20:17.019Z,100298.34
2022-11-28T20:22:45.774Z,100301.72
2022-11-28T20:25:20.510Z,100306.72
2022-11-28T20:27:52.868Z,100311.50
2022-11-28T20:30:21.783Z,100316.44
2022-11-28T20:32:52.022Z,100314.47
2022-11-28T20:35:23.229Z,100317.94
2022-11-28T20:37:54.714Z,100318.16
2022-11-28T20:40:23.583Z,100316.88
2022-11-28T20:42:53.279Z,100319.84
2022-11-28T20:45:22.211Z,100325.34
2022-11-28T20:47:50.615Z,100316.34
2022-11-28T20:50:18.766Z,100325.34
2022-11-28T20:52:48.344Z,100325.16
2022-11-28T20:55:16.524Z,100324.41
2022-11-28T20:57:45.556Z,100314.13
2022-11-28T21:00:17.102Z,100326.66
2022-11-28T21:02:47.978Z,100326.66
2022-11-28T21:05:17.779Z,100330.13
2022-11-28T21:07:46.537Z,100324.84
2022-11-28T21:10:15.145Z,100331.81
2022-11-28T21:12:44.381Z,100330.34
2022-11-28T21:15:15.602Z,100337.53
2022-11-28T21:17:47.365Z,100330.75
2022-11-28T21:20:15.568Z,100325.25
2022-11-28T21:22:44.554Z,100330.75
2022-11-28T21:25:13.654Z,100328.00
2022-11-28T21:27:44.311Z,100338.28
2022-11-28T21:30:13.215Z,100333.50
2022-11-28T21:32:43.024Z,100337.75
2022-11-28T21:35:11.285Z,100332.25
2022-11-28T21:37:41.048Z,100343.28
2022-11-28T21:40:10.850Z,100340.69
2022-11-28T21:42:39.404Z,100342.00
2022-11-28T21:45:10.425Z,100344.75
2022-11-28T21:47:40.422Z,100332.25
2022-11-28T21:50:11.961Z,100337.94
2022-11-28T21:52:41.754Z,100327.69
2022-11-28T21:55:10.957Z,100329.88
2022-11-28T21:57:42.016Z,100339.44
2022-11-28T22:00:31.279Z,100328.22
2022-11-28T22:05:52.737Z,100329.28
2022-11-28T22:08:21.603Z,100337.53
2022-11-28T22:10:50.031Z,100339.75
2022-11-28T22:13:18.710Z,100334.25
2022-11-28T22:15:49.052Z,100336.25
2022-11-28T22:18:18.259Z,100343.28
2022-11-28T22:20:50.227Z,100334.25
2022-11-28T22:23:22.314Z,100332.25
2022-11-28T22:25:52.085Z,100344.00
2022-11-28T22:28:22.954Z,100342.50
2022-11-28T22:30:51.928Z,100335.53
2022-11-28T22:33:21.083Z,100341.78
2022-11-28T22:35:53.385Z,100336.25
2022-11-28T22:38:23.552Z,100336.25
2022-11-28T22:40:52.902Z,100348.56
2022-11-28T22:43:21.923Z,100343.06
2022-11-28T22:45:56.671Z,100351.31
2022-11-28T22:48:27.858Z,100345.81
2022-11-28T22:50:57.196Z,100347.28
2022-11-28T22:53:29.410Z,100348.78
2022-11-28T22:55:59.160Z,100351.53
2022-11-28T22:58:27.546Z,100353.53
2022-11-28T23:00:56.037Z,100355.75
2022-11-28T23:03:25.658Z,100354.47
2022-11-28T23:05:54.152Z,100357.25
2022-11-28T23:08:22.269Z,100362.75
2022-11-28T23:10:51.997Z,100354.47
2022-11-28T23:13:21.692Z,100360.00
2022-11-28T23:15:52.887Z,100355.97
2022-11-28T23:18:22.165Z,100356.19
2022-11-28T23:20:52.377Z,100362.44
2022-11-28T23:23:22.128Z,100365.19
2022-11-28T23:25:51.944Z,100358.41
2022-11-28T23:28:21.339Z,100363.19
2022-11-28T23:30:50.808Z,100358.94
2022-11-28T23:33:19.583Z,100360.97
2022-11-28T23:35:48.869Z,100353.22
2022-11-28T23:38:25.774Z,100356.19
2022-11-28T23:40:57.699Z,100359.47
2022-11-28T23:43:26.747Z,100365.00
2022-11-28T23:45:55.140Z,100355.75
2022-11-28T23:48:25.347Z,100364.03
2022-11-28T23:50:53.585Z,100361.06
2022-11-28T23:53:22.711Z,100361.06
2022-11-28T23:55:53.141Z,100367.88
2022-11-28T23:58:23.191Z,100354.09
